Time;durP1;ratioP1;P1;durP2;ratioP2;P2;SDS_P1;SDS_P2;PMS_P1;PMS_P2;Temp;Humidity;BMP_temperature;BMP_pressure;BME280_temperature;BME280_humidity;BME280_pressure;Samples;Min_cycle;Max_cycle;Signal;HPM_P1;HPM_P2
2022/04/10 00:00:49;;;;;;;5.13;2.53;;;;;;;;;;10430667;28;20099;-74
2022/04/10 00:05:51;;;;;;;12.90;2.87;;;;;;;;;;10447295;28;20159;-78
2022/04/10 00:10:51;;;;;;;10.13;2.28;;;;;;;;;;10482921;28;20436;-72
2022/04/10 00:15:51;;;;;;;3.47;2.37;;;;;;;;;;10471322;28;20041;-73
2022/04/10 00:20:52;;;;;;;6.25;2.83;;;;;;;;;;10471004;28;20824;-71
2022/04/10 00:25:52;;;;;;;5.68;2.40;;;;;;;;;;10470769;28;20467;-72
2022/04/10 00:30:52;;;;;;;7.53;2.88;;;;;;;;;;10470542;28;20036;-74
2022/04/10 00:35:52;;;;;;;10.25;3.42;;;;;;;;;;10470878;28;20491;-73
2022/04/10 00:40:53;;;;;;;9.87;3.83;;;;;;;;;;10471216;28;20046;-73
2022/04/10 00:45:55;;;;;;;8.98;3.20;;;;;;;;;;10471138;28;20028;-71
2022/04/10 00:56:15;;;;;;;12.57;4.43;;;;;;;;;;10501517;28;20105;-72
2022/04/10 01:01:16;;;;;;;13.30;4.18;;;;;;;;;;10470381;28;20032;-73
2022/04/10 01:06:16;;;;;;;4.22;3.38;;;;;;;;;;10470024;28;20028;-73
2022/04/10 01:11:16;;;;;;;7.20;3.10;;;;;;;;;;10474773;28;20056;-77
2022/04/10 01:16:16;;;;;;;7.43;3.17;;;;;;;;;;10478156;28;20191;-73
2022/04/10 01:21:24;;;;;;;11.37;3.90;;;;;;;;;;10477917;28;20020;-72
2022/04/10 01:26:25;;;;;;;9.85;3.67;;;;;;;;;;10478228;28;20025;-76
2022/04/10 01:31:26;;;;;;;10.43;3.40;;;;;;;;;;10477432;28;20020;-72
2022/04/10 01:36:28;;;;;;;9.32;4.35;;;;;;;;;;10496598;28;20020;-76
2022/04/10 01:41:28;;;;;;;8.15;3.60;;;;;;;;;;10460762;28;20025;-76
2022/04/10 01:46:29;;;;;;;14.57;4.45;;;;;;;;;;10495063;28;20024;-74
2022/04/10 01:51:29;;;;;;;13.30;5.53;;;;;;;;;;10494961;28;20096;-75
2022/04/10 01:56:30;;;;;;;20.52;5.60;;;;;;;;;;10477193;28;20032;-72
2022/04/10 02:01:30;;;;;;;14.32;5.45;;;;;;;;;;10476023;28;20033;-72
2022/04/10 02:06:30;;;;;;;13.85;6.43;;;;;;;;;;10476459;28;20024;-72
2022/04/10 02:11:30;;;;;;;15.68;4.97;;;;;;;;;;10494195;28;20102;-72
2022/04/10 02:16:31;;;;;;;21.13;5.22;;;;;;;;;;10476281;28;20027;-73
2022/04/10 02:21:31;;;;;;;12.57;5.63;;;;;;;;;;10475577;28;20113;-76
2022/04/10 02:26:31;;;;;;;14.33;5.00;;;;;;;;;;10475864;28;20020;-76
2022/04/10 02:31:32;;;;;;;15.75;5.85;;;;;;;;;;10475557;28;20767;-71
2022/04/10 02:36:32;;;;;;;13.65;5.30;;;;;;;;;;10475309;28;20025;-73
2022/04/10 02:41:32;;;;;;;11.75;5.70;;;;;;;;;;10493261;28;20028;-73
2022/04/10 02:46:32;;;;;;;11.35;5.22;;;;;;;;;;10475082;28;20522;-72
2022/04/10 02:51:33;;;;;;;14.35;5.75;;;;;;;;;;10474713;28;20462;-73
2022/04/10 02:56:33;;;;;;;16.38;5.93;;;;;;;;;;10474710;28;20514;-71
2022/04/10 03:01:33;;;;;;;8.33;5.47;;;;;;;;;;10491805;28;20047;-72
2022/04/10 03:06:34;;;;;;;10.13;5.70;;;;;;;;;;10492142;28;20428;-71
2022/04/10 03:11:34;;;;;;;11.77;6.22;;;;;;;;;;10491563;28;20059;-74
2022/04/10 03:16:35;;;;;;;10.20;6.10;;;;;;;;;;10473872;28;20033;-71
2022/04/10 03:21:35;;;;;;;15.23;6.65;;;;;;;;;;10473208;28;20089;-71
2022/04/10 03:26:37;;;;;;;9.00;4.70;;;;;;;;;;10473218;28;20109;-71
2022/04/10 03:31:37;;;;;;;13.73;6.40;;;;;;;;;;10472666;28;20060;-71
2022/04/10 03:36:37;;;;;;;9.82;5.93;;;;;;;;;;10491136;28;20492;-73
2022/04/10 03:41:38;;;;;;;18.02;6.28;;;;;;;;;;10473138;28;20051;-72
2022/04/10 03:46:38;;;;;;;11.90;5.70;;;;;;;;;;10471238;28;20070;-72
2022/04/10 03:51:38;;;;;;;13.77;6.47;;;;;;;;;;10490149;28;20491;-76
2022/04/10 03:56:39;;;;;;;13.30;6.43;;;;;;;;;;10472365;28;20032;-73
2022/04/10 04:01:39;;;;;;;17.23;6.85;;;;;;;;;;10489799;28;20086;-72
2022/04/10 04:06:39;;;;;;;16.93;5.47;;;;;;;;;;10504991;28;20044;-70
2022/04/10 04:11:39;;;;;;;16.08;6.38;;;;;;;;;;10489739;28;20036;-72
2022/04/10 04:16:40;;;;;;;11.15;6.75;;;;;;;;;;10489290;28;20548;-72
2022/04/10 04:21:40;;;;;;;15.23;7.43;;;;;;;;;;10505174;28;20028;-76
2022/04/10 04:26:40;;;;;;;17.00;7.10;;;;;;;;;;10471250;28;20052;-76
2022/04/10 04:31:41;;;;;;;19.52;9.25;;;;;;;;;;10470773;28;20032;-72
2022/04/10 04:36:41;;;;;;;12.07;8.07;;;;;;;;;;10489109;28;20392;-73
2022/04/10 04:41:44;;;;;;;16.02;9.45;;;;;;;;;;10471015;28;20035;-73
2022/04/10 04:46:44;;;;;;;27.05;12.40;;;;;;;;;;10469298;28;20139;-72
2022/04/10 04:51:46;;;;;;;22.35;14.13;;;;;;;;;;10445928;28;20039;-77
2022/04/10 04:56:46;;;;;;;27.05;15.95;;;;;;;;;;10429310;28;20075;-79
2022/04/10 05:01:46;;;;;;;28.97;16.23;;;;;;;;;;10428412;28;20120;-70
2022/04/10 05:06:47;;;;;;;31.83;15.98;;;;;;;;;;10446622;28;20010;-79
2022/04/10 05:11:47;;;;;;;30.67;16.73;;;;;;;;;;10428680;28;20040;-74
2022/04/10 05:16:48;;;;;;;36.35;18.42;;;;;;;;;;10446632;28;20025;-72
2022/04/10 05:21:48;;;;;;;34.25;18.05;;;;;;;;;;10428284;28;20082;-70
2022/04/10 05:26:48;;;;;;;33.00;16.33;;;;;;;;;;10430079;28;20473;-72
2022/04/10 05:31:49;;;;;;;27.53;15.47;;;;;;;;;;10446159;28;20029;-78
2022/04/10 05:36:50;;;;;;;38.35;18.17;;;;;;;;;;10445672;28;20599;-73
2022/04/10 05:41:50;;;;;;;32.53;17.45;;;;;;;;;;10427957;28;20029;-72
2022/04/10 05:46:50;;;;;;;34.00;16.92;;;;;;;;;;10467511;28;20021;-76
2022/04/10 05:51:51;;;;;;;30.75;15.98;;;;;;;;;;10445520;28;20044;-71
2022/04/10 05:56:55;;;;;;;28.00;15.85;;;;;;;;;;10430719;28;20170;-70
2022/04/10 06:01:55;;;;;;;30.88;15.77;;;;;;;;;;10448148;28;20037;-76
2022/04/10 06:06:55;;;;;;;30.30;14.80;;;;;;;;;;10451304;28;20029;-73
2022/04/10 06:11:55;;;;;;;29.80;14.20;;;;;;;;;;10451690;28;20048;-70
2022/04/10 06:16:56;;;;;;;28.90;16.33;;;;;;;;;;10435026;28;20028;-72
2022/04/10 06:21:56;;;;;;;29.65;15.23;;;;;;;;;;10447912;28;20024;-70
2022/04/10 06:26:56;;;;;;;26.83;13.77;;;;;;;;;;10458990;28;20029;-72
2022/04/10 06:31:57;;;;;;;20.53;11.47;;;;;;;;;;10486693;28;20025;-72
2022/04/10 06:36:57;;;;;;;21.63;11.93;;;;;;;;;;10448751;28;20033;-70
2022/04/10 06:41:57;;;;;;;20.77;11.38;;;;;;;;;;10438684;28;20382;-70
2022/04/10 06:46:57;;;;;;;18.77;11.52;;;;;;;;;;10450284;28;20035;-71
2022/04/10 06:51:58;;;;;;;22.58;10.77;;;;;;;;;;10451518;28;20036;-69
2022/04/10 06:56:58;;;;;;;17.73;9.65;;;;;;;;;;10450565;28;20060;-69
2022/04/10 07:01:58;;;;;;;20.93;9.53;;;;;;;;;;10450408;28;20021;-72
2022/04/10 07:06:59;;;;;;;14.27;7.63;;;;;;;;;;10435932;28;20609;-71
2022/04/10 07:11:59;;;;;;;11.00;6.20;;;;;;;;;;10449089;28;20104;-72
2022/04/10 07:16:59;;;;;;;15.13;8.00;;;;;;;;;;10450662;28;20017;-70
2022/04/10 07:27:18;;;;;;;8.27;5.45;;;;;;;;;;10449701;28;20100;-72
2022/04/10 07:32:19;;;;;;;15.73;6.90;;;;;;;;;;10439296;28;20028;-69
2022/04/10 07:37:19;;;;;;;7.03;4.30;;;;;;;;;;10465374;28;20032;-72
2022/04/10 07:42:20;;;;;;;7.72;5.28;;;;;;;;;;10465069;28;20039;-73
2022/04/10 07:47:26;;;;;;;6.97;4.50;;;;;;;;;;10471511;28;20476;-70
2022/04/10 07:52:26;;;;;;;12.25;4.15;;;;;;;;;;10455795;28;20426;-72
2022/04/10 07:57:26;;;;;;;7.10;3.97;;;;;;;;;;10478369;28;20025;-72
2022/04/10 08:02:27;;;;;;;5.57;3.35;;;;;;;;;;10431217;28;20283;-72
2022/04/10 08:07:27;;;;;;;5.20;2.90;;;;;;;;;;10430437;28;20115;-70
2022/04/10 08:12:27;;;;;;;3.70;2.47;;;;;;;;;;10430352;28;20056;-72
2022/04/10 08:17:27;;;;;;;2.93;2.17;;;;;;;;;;10485789;28;20028;-73
2022/04/10 08:22:28;;;;;;;2.30;1.70;;;;;;;;;;10443146;28;20033;-72
2022/04/10 08:27:29;;;;;;;6.60;1.50;;;;;;;;;;10438867;28;20024;-78
2022/04/10 08:32:36;;;;;;;4.05;1.67;;;;;;;;;;10429301;28;20025;-71
2022/04/10 08:37:36;;;;;;;1.65;1.13;;;;;;;;;;10468947;28;20466;-69
2022/04/10 08:42:37;;;;;;;3.03;1.58;;;;;;;;;;10436240;28;20112;-69
2022/04/10 08:47:42;;;;;;;1.08;1.02;;;;;;;;;;10444776;28;20389;-70
2022/04/10 08:52:43;;;;;;;2.15;1.20;;;;;;;;;;10454392;28;20029;-74
2022/04/10 08:57:43;;;;;;;1.25;0.90;;;;;;;;;;10451408;28;20021;-73
2022/04/10 09:02:47;;;;;;;0.93;0.88;;;;;;;;;;10449859;28;20024;-70
2022/04/10 09:08:06;;;;;;;1.55;1.25;;;;;;;;;;10444027;28;20716;-70
2022/04/10 09:13:07;;;;;;;2.10;1.40;;;;;;;;;;10444888;28;20050;-74
2022/04/10 09:18:07;;;;;;;1.63;1.30;;;;;;;;;;10471023;28;20041;-73
2022/04/10 09:23:08;;;;;;;2.03;1.70;;;;;;;;;;10465264;28;20508;-74
2022/04/10 09:28:08;;;;;;;2.22;1.23;;;;;;;;;;10442623;28;20555;-69
2022/04/10 09:33:09;;;;;;;4.53;1.40;;;;;;;;;;10450664;28;20035;-70
2022/04/10 09:38:10;;;;;;;1.67;1.40;;;;;;;;;;10471852;28;20083;-70
2022/04/10 09:43:10;;;;;;;1.67;1.33;;;;;;;;;;10469662;28;20519;-70
2022/04/10 09:48:21;;;;;;;1.65;1.55;;;;;;;;;;10451249;28;20035;-70
2022/04/10 09:53:22;;;;;;;7.68;1.60;;;;;;;;;;10458720;28;20028;-69
2022/04/10 09:58:23;;;;;;;2.08;1.50;;;;;;;;;;10471559;28;20020;-69
2022/04/10 10:03:24;;;;;;;3.58;1.38;;;;;;;;;;10459494;28;20028;-70
2022/04/10 10:08:25;;;;;;;1.38;1.25;;;;;;;;;;10449984;28;20051;-75
2022/04/10 10:13:27;;;;;;;2.08;1.70;;;;;;;;;;10460382;28;20028;-70
2022/04/10 10:18:27;;;;;;;5.22;2.10;;;;;;;;;;10442060;28;20411;-70
2022/04/10 10:23:27;;;;;;;2.57;2.23;;;;;;;;;;10458700;28;20032;-70
2022/04/10 10:28:40;;;;;;;1.10;1.00;;;;;;;;;;10453795;28;20334;-71
2022/04/10 10:33:47;;;;;;;1.58;1.02;;;;;;;;;;10457334;28;20405;-71
2022/04/10 10:38:52;;;;;;;2.27;1.77;;;;;;;;;;10449718;28;20036;-70
2022/04/10 10:43:54;;;;;;;2.63;1.27;;;;;;;;;;10466568;28;20742;-70
2022/04/10 10:49:10;;;;;;;2.25;1.13;;;;;;;;;;10457115;28;20412;-71
2022/04/10 10:54:15;;;;;;;4.95;1.30;;;;;;;;;;10447318;28;20098;-72
2022/04/10 10:59:18;;;;;;;3.53;1.70;;;;;;;;;;10457535;28;20029;-70
2022/04/10 11:04:20;;;;;;;1.35;1.17;;;;;;;;;;10470964;28;20119;-72
2022/04/10 11:09:23;;;;;;;5.78;1.92;;;;;;;;;;10453298;28;20052;-71
2022/04/10 11:14:38;;;;;;;2.00;1.75;;;;;;;;;;10463494;28;20071;-71
2022/04/10 11:19:38;;;;;;;2.97;2.00;;;;;;;;;;10450048;28;20059;-72
2022/04/10 11:24:38;;;;;;;1.30;1.05;;;;;;;;;;10452497;28;20135;-72
2022/04/10 11:29:54;;;;;;;1.77;1.60;;;;;;;;;;10456800;28;20036;-74
2022/04/10 11:34:59;;;;;;;3.33;1.52;;;;;;;;;;10446167;28;20064;-71
2022/04/10 11:39:59;;;;;;;3.88;2.10;;;;;;;;;;10455201;28;20021;-78
2022/04/10 11:44:59;;;;;;;3.60;2.13;;;;;;;;;;10452457;28;20024;-76
2022/04/10 11:50:00;;;;;;;3.35;1.88;;;;;;;;;;10462837;28;20670;-72
2022/04/10 11:55:04;;;;;;;3.35;2.40;;;;;;;;;;10457435;28;20033;-73
2022/04/10 12:00:09;;;;;;;3.28;2.58;;;;;;;;;;10437965;28;20132;-71
2022/04/10 12:05:10;;;;;;;3.25;2.35;;;;;;;;;;10429051;28;20029;-71
2022/04/10 12:10:10;;;;;;;4.20;3.50;;;;;;;;;;10455824;28;20056;-72
2022/04/10 12:15:15;;;;;;;5.50;3.72;;;;;;;;;;10446866;28;20116;-67
2022/04/10 12:20:15;;;;;;;5.57;3.30;;;;;;;;;;10448140;28;20561;-73
2022/04/10 12:25:16;;;;;;;4.73;3.53;;;;;;;;;;10444808;28;20035;-71
2022/04/10 12:30:17;;;;;;;5.60;3.67;;;;;;;;;;10442830;28;20115;-71
2022/04/10 12:35:17;;;;;;;5.45;3.65;;;;;;;;;;10455184;28;20305;-74
2022/04/10 12:40:26;;;;;;;7.25;4.43;;;;;;;;;;10454211;28;20072;-74
2022/04/10 12:45:29;;;;;;;7.97;5.82;;;;;;;;;;10454880;28;20044;-75
2022/04/10 12:50:29;;;;;;;6.07;4.68;;;;;;;;;;10449095;28;20142;-74
2022/04/10 12:55:30;;;;;;;5.47;4.93;;;;;;;;;;10454693;28;20563;-71
2022/04/10 13:00:31;;;;;;;7.35;6.38;;;;;;;;;;10456060;28;20477;-74
2022/04/10 13:05:32;;;;;;;7.90;7.10;;;;;;;;;;10451379;28;20021;-74
2022/04/10 13:10:47;;;;;;;10.57;6.47;;;;;;;;;;10455633;28;20118;-72
2022/04/10 13:15:48;;;;;;;8.60;6.68;;;;;;;;;;10454856;28;20027;-76
2022/04/10 13:20:50;;;;;;;8.82;7.85;;;;;;;;;;10450915;28;20033;-72
2022/04/10 13:25:50;;;;;;;9.27;7.55;;;;;;;;;;10454799;28;20500;-75
2022/04/10 13:30:50;;;;;;;12.20;10.18;;;;;;;;;;10455737;28;20021;-76
2022/04/10 13:35:50;;;;;;;9.10;8.20;;;;;;;;;;10458218;28;20411;-71
2022/04/10 13:40:51;;;;;;;13.57;10.57;;;;;;;;;;10456432;28;20543;-70
2022/04/10 13:45:51;;;;;;;15.95;8.40;;;;;;;;;;10453665;28;20263;-73
2022/04/10 13:50:52;;;;;;;14.43;10.48;;;;;;;;;;10462475;28;20496;-71
2022/04/10 13:55:52;;;;;;;9.70;6.20;;;;;;;;;;10457867;28;20024;-74
2022/04/10 14:00:53;;;;;;;9.95;6.90;;;;;;;;;;10453814;28;20028;-75
2022/04/10 14:05:53;;;;;;;11.32;7.90;;;;;;;;;;10471734;28;20567;-71
2022/04/10 14:10:54;;;;;;;10.15;6.40;;;;;;;;;;10441812;28;20048;-74
2022/04/10 14:15:54;;;;;;;6.97;6.30;;;;;;;;;;10430210;28;20033;-72
2022/04/10 14:20:56;;;;;;;8.48;6.47;;;;;;;;;;10436609;28;20033;-70
2022/04/10 14:25:56;;;;;;;7.78;6.00;;;;;;;;;;10449408;28;20522;-73
2022/04/10 14:30:57;;;;;;;7.43;6.70;;;;;;;;;;10460632;28;20039;-71
2022/04/10 14:35:57;;;;;;;7.32;5.03;;;;;;;;;;10464400;28;20035;-69
2022/04/10 14:40:58;;;;;;;8.75;4.45;;;;;;;;;;10452093;28;20505;-73
2022/04/10 14:45:58;;;;;;;10.18;6.47;;;;;;;;;;10452515;28;20123;-74
2022/04/10 14:50:58;;;;;;;5.85;4.28;;;;;;;;;;10458830;28;20021;-69
2022/04/10 14:55:59;;;;;;;6.77;5.17;;;;;;;;;;10458346;28;20032;-75
2022/04/10 15:00:59;;;;;;;8.00;4.67;;;;;;;;;;10458706;28;20366;-75
2022/04/10 15:05:59;;;;;;;7.53;3.93;;;;;;;;;;10472640;28;20259;-74
2022/04/10 15:11:00;;;;;;;9.32;6.03;;;;;;;;;;10461673;28;20041;-73
2022/04/10 15:16:01;;;;;;;7.23;5.03;;;;;;;;;;10457190;28;20035;-70
2022/04/10 15:21:01;;;;;;;5.15;4.15;;;;;;;;;;10438229;28;20286;-70
2022/04/10 15:26:03;;;;;;;12.57;4.50;;;;;;;;;;10447469;28;20079;-72
2022/04/10 15:31:07;;;;;;;9.95;4.90;;;;;;;;;;10451939;28;20108;-73
2022/04/10 15:36:07;;;;;;;4.93;3.58;;;;;;;;;;10447197;28;20020;-75
2022/04/10 15:41:07;;;;;;;7.33;3.93;;;;;;;;;;10465819;28;20480;-74
2022/04/10 15:46:07;;;;;;;5.67;4.07;;;;;;;;;;10454050;28;20090;-74
2022/04/10 15:51:08;;;;;;;9.77;5.70;;;;;;;;;;10460695;28;20294;-73
2022/04/10 15:56:08;;;;;;;7.63;5.47;;;;;;;;;;10460489;28;20093;-70
2022/04/10 16:01:09;;;;;;;9.27;6.93;;;;;;;;;;10458057;28;20017;-71
2022/04/10 16:06:09;;;;;;;12.43;8.80;;;;;;;;;;10446209;28;20013;-71
2022/04/10 16:11:09;;;;;;;9.43;8.35;;;;;;;;;;10443721;28;20303;-71
2022/04/10 16:16:10;;;;;;;13.75;8.30;;;;;;;;;;10449021;28;20511;-70
2022/04/10 16:21:13;;;;;;;13.65;8.57;;;;;;;;;;10445050;28;20567;-75
2022/04/10 16:26:13;;;;;;;16.13;10.35;;;;;;;;;;10467493;28;20032;-71
2022/04/10 16:31:14;;;;;;;18.05;12.05;;;;;;;;;;10448749;28;20025;-78
2022/04/10 16:36:14;;;;;;;21.35;13.60;;;;;;;;;;10453331;28;20024;-70
2022/04/10 16:41:15;;;;;;;27.42;16.85;;;;;;;;;;10457584;28;20021;-72
2022/04/10 16:46:15;;;;;;;27.07;13.87;;;;;;;;;;10438720;28;20029;-71
2022/04/10 16:51:16;;;;;;;26.77;17.15;;;;;;;;;;10445807;28;20128;-72
2022/04/10 16:56:16;;;;;;;32.90;19.65;;;;;;;;;;10445021;28;20029;-70
2022/04/10 17:01:16;;;;;;;32.90;22.27;;;;;;;;;;10461523;28;20447;-71
2022/04/10 17:06:16;;;;;;;38.85;20.70;;;;;;;;;;10446212;28;20036;-72
2022/04/10 17:11:17;;;;;;;39.33;22.67;;;;;;;;;;10455751;28;20132;-75
2022/04/10 17:16:18;;;;;;;37.30;22.08;;;;;;;;;;10457856;28;20090;-70
2022/04/10 17:21:18;;;;;;;39.70;24.42;;;;;;;;;;10457307;28;20025;-71
2022/04/10 17:26:18;;;;;;;37.95;23.60;;;;;;;;;;10472389;28;20484;-72
2022/04/10 17:31:18;;;;;;;44.38;24.85;;;;;;;;;;10456241;28;20017;-71
2022/04/10 17:36:19;;;;;;;43.33;24.50;;;;;;;;;;10455816;28;20059;-72
2022/04/10 17:41:19;;;;;;;40.03;21.03;;;;;;;;;;10455495;28;20037;-70
2022/04/10 17:46:20;;;;;;;46.73;29.40;;;;;;;;;;10462565;28;20270;-69
2022/04/10 17:51:21;;;;;;;45.80;28.25;;;;;;;;;;10458509;28;20363;-73
2022/04/10 17:56:21;;;;;;;48.20;29.23;;;;;;;;;;10463465;28;20399;-71
2022/04/10 18:01:22;;;;;;;49.70;30.07;;;;;;;;;;10467805;28;20050;-70
2022/04/10 18:06:22;;;;;;;40.90;23.80;;;;;;;;;;10478235;28;20279;-74
2022/04/10 18:11:22;;;;;;;42.60;27.67;;;;;;;;;;10442973;28;20064;-71
2022/04/10 18:16:23;;;;;;;45.40;29.73;;;;;;;;;;10430483;28;20036;-71
2022/04/10 18:21:24;;;;;;;42.30;26.55;;;;;;;;;;10438239;28;20041;-74
2022/04/10 18:26:24;;;;;;;41.97;28.02;;;;;;;;;;10433621;28;20021;-73
2022/04/10 18:31:24;;;;;;;48.30;31.20;;;;;;;;;;10426598;28;20036;-73
2022/04/10 18:36:24;;;;;;;41.55;27.15;;;;;;;;;;10429905;28;20288;-74
2022/04/10 18:41:25;;;;;;;48.78;28.60;;;;;;;;;;10434049;28;20037;-70
2022/04/10 18:46:26;;;;;;;40.10;25.70;;;;;;;;;;10440885;28;20559;-72
2022/04/10 18:51:29;;;;;;;43.20;25.70;;;;;;;;;;10435275;28;20586;-71
2022/04/10 18:56:29;;;;;;;44.22;27.88;;;;;;;;;;10427309;28;21075;-73
2022/04/10 19:01:29;;;;;;;39.40;23.57;;;;;;;;;;10419851;28;20041;-70
2022/04/10 19:06:30;;;;;;;46.25;28.92;;;;;;;;;;10444439;28;20108;-71
2022/04/10 19:11:30;;;;;;;38.20;25.83;;;;;;;;;;10457651;28;20551;-71
2022/04/10 19:16:30;;;;;;;47.00;25.65;;;;;;;;;;10466996;28;20511;-71
2022/04/10 19:21:30;;;;;;;45.63;26.73;;;;;;;;;;10484262;28;20657;-73
2022/04/10 19:26:31;;;;;;;39.63;24.80;;;;;;;;;;10426706;28;20025;-70
2022/04/10 19:31:31;;;;;;;40.55;27.73;;;;;;;;;;10444367;28;20037;-75
2022/04/10 19:36:31;;;;;;;39.95;26.95;;;;;;;;;;10446690;28;20025;-70
2022/04/10 19:41:32;;;;;;;35.47;24.50;;;;;;;;;;10464094;28;20486;-72
2022/04/10 19:46:32;;;;;;;33.53;22.70;;;;;;;;;;10437392;28;20020;-70
2022/04/10 19:51:32;;;;;;;32.55;24.63;;;;;;;;;;10443434;28;20107;-71
2022/04/10 19:56:33;;;;;;;33.88;23.02;;;;;;;;;;10425569;28;20036;-70
2022/04/10 20:01:33;;;;;;;35.87;21.43;;;;;;;;;;10425190;28;20033;-72
2022/04/10 20:06:33;;;;;;;33.17;21.17;;;;;;;;;;10448495;28;20692;-70
2022/04/10 20:11:34;;;;;;;31.43;24.30;;;;;;;;;;10465972;28;20678;-71
2022/04/10 20:16:34;;;;;;;30.67;21.98;;;;;;;;;;10464873;28;20500;-75
2022/04/10 20:21:35;;;;;;;29.50;23.58;;;;;;;;;;10466101;28;20540;-72
2022/04/10 20:26:35;;;;;;;32.30;21.23;;;;;;;;;;10439048;28;20408;-71
2022/04/10 20:31:35;;;;;;;34.57;23.30;;;;;;;;;;10423941;28;20039;-70
2022/04/10 20:36:36;;;;;;;33.00;23.35;;;;;;;;;;10423689;28;20142;-72
2022/04/10 20:41:36;;;;;;;32.42;24.42;;;;;;;;;;10423535;28;20029;-71
2022/04/10 20:46:36;;;;;;;30.50;21.38;;;;;;;;;;10423828;28;20025;-74
2022/04/10 20:51:38;;;;;;;33.07;23.63;;;;;;;;;;10423824;28;20041;-71
2022/04/10 20:56:38;;;;;;;29.77;24.48;;;;;;;;;;10422974;28;20059;-70
2022/04/10 21:01:39;;;;;;;25.50;18.60;;;;;;;;;;10459285;28;20029;-72
2022/04/10 21:06:39;;;;;;;31.02;22.60;;;;;;;;;;10464176;28;20028;-73
2022/04/10 21:11:42;;;;;;;30.30;22.27;;;;;;;;;;10482121;28;20093;-70
2022/04/10 21:16:42;;;;;;;27.05;19.88;;;;;;;;;;10483575;28;20017;-75
2022/04/10 21:21:44;;;;;;;25.70;19.27;;;;;;;;;;10481900;28;20031;-76
2022/04/10 21:26:44;;;;;;;24.80;18.83;;;;;;;;;;10465532;28;20025;-71
2022/04/10 21:31:45;;;;;;;25.10;18.43;;;;;;;;;;10471633;28;20662;-71
2022/04/10 21:36:45;;;;;;;25.57;19.90;;;;;;;;;;10490526;28;20035;-75
2022/04/10 21:41:45;;;;;;;26.95;20.15;;;;;;;;;;10471360;28;20025;-72
2022/04/10 21:46:46;;;;;;;27.05;19.83;;;;;;;;;;10471769;28;20028;-76
2022/04/10 21:51:46;;;;;;;23.83;18.27;;;;;;;;;;10471394;28;20487;-72
2022/04/10 21:56:46;;;;;;;29.23;19.60;;;;;;;;;;10471552;28;20024;-73
2022/04/10 22:01:47;;;;;;;27.88;16.60;;;;;;;;;;10470550;28;20040;-74
2022/04/10 22:06:47;;;;;;;24.10;18.38;;;;;;;;;;10470258;28;20560;-74
2022/04/10 22:11:48;;;;;;;29.20;18.15;;;;;;;;;;10470627;28;20086;-71
2022/04/10 22:16:48;;;;;;;24.17;18.55;;;;;;;;;;10470271;28;20024;-71
2022/04/10 22:21:48;;;;;;;26.10;21.13;;;;;;;;;;10470364;28;20024;-72
2022/04/10 22:26:48;;;;;;;28.90;16.33;;;;;;;;;;10469851;28;20070;-77
2022/04/10 22:31:49;;;;;;;23.27;18.92;;;;;;;;;;10469871;28;20086;-71
2022/04/10 22:36:49;;;;;;;25.80;18.87;;;;;;;;;;10469670;28;20163;-75
2022/04/10 22:41:49;;;;;;;23.50;17.93;;;;;;;;;;10469655;28;20266;-72
2022/04/10 22:46:50;;;;;;;19.52;15.05;;;;;;;;;;10487895;28;20033;-74
2022/04/10 22:51:50;;;;;;;25.80;17.30;;;;;;;;;;10468672;28;20032;-75
2022/04/10 22:56:50;;;;;;;19.43;12.77;;;;;;;;;;10486563;28;20085;-72
2022/04/10 23:01:50;;;;;;;21.35;16.88;;;;;;;;;;10485928;28;20263;-73
2022/04/10 23:06:51;;;;;;;28.17;18.17;;;;;;;;;;10468324;28;20445;-73
2022/04/10 23:11:51;;;;;;;20.35;17.60;;;;;;;;;;10469343;28;20031;-74
2022/04/10 23:16:51;;;;;;;25.13;18.90;;;;;;;;;;10469807;28;20075;-73
2022/04/10 23:21:52;;;;;;;25.48;17.95;;;;;;;;;;10469372;28;20278;-71
2022/04/10 23:26:52;;;;;;;22.15;15.75;;;;;;;;;;10487113;28;20039;-72
2022/04/10 23:31:52;;;;;;;27.30;15.25;;;;;;;;;;10469267;28;20077;-74
2022/04/10 23:36:52;;;;;;;21.13;13.70;;;;;;;;;;10472878;28;20032;-71
2022/04/10 23:41:53;;;;;;;18.15;14.40;;;;;;;;;;10470493;28;20044;-71
2022/04/10 23:46:53;;;;;;;17.38;11.30;;;;;;;;;;10468182;28;20024;-75
2022/04/10 23:51:53;;;;;;;18.63;12.10;;;;;;;;;;10468055;28;20111;-75
2022/04/10 23:56:54;;;;;;;18.00;13.03;;;;;;;;;;10468588;28;20058;-74
